Time;durP1;ratioP1;P1;durP2;ratioP2;P2;SDS_P1;SDS_P2;PMS_P1;PMS_P2;Temp;Humidity;BMP_temperature;BMP_pressure;BME280_temperature;BME280_humidity;BME280_pressure;Samples;Min_cycle;Max_cycle;Signal;HPM_P1;HPM_P2
2022/10/07 00:01:02;;;;;;;11.05;6.90;;;;;;;14.27;69.97;101146.38;4484868;32;33834;-76
2022/10/07 00:03:30;;;;;;;9.95;6.50;;;;;;;14.35;69.16;101135.09;4470603;32;35053;-76
2022/10/07 00:06:02;;;;;;;8.32;5.62;;;;;;;14.23;69.18;101137.00;4484811;32;33665;-76
2022/10/07 00:08:30;;;;;;;8.20;6.00;;;;;;;13.79;71.05;101145.53;4485131;32;34103;-75
2022/10/07 00:11:06;;;;;;;7.43;5.28;;;;;;;13.69;71.28;101137.97;4484960;32;34200;-76
2022/10/07 00:13:35;;;;;;;7.75;5.18;;;;;;;13.84;70.93;101139.38;4470526;32;34780;-76
2022/10/07 00:16:08;;;;;;;7.55;5.43;;;;;;;14.01;70.03;101129.41;4484311;32;33414;-76
2022/10/07 00:18:36;;;;;;;7.25;5.28;;;;;;;14.22;69.00;101127.97;4470805;32;33702;-76
2022/10/07 00:21:06;;;;;;;7.28;5.40;;;;;;;13.88;70.17;101135.13;4470711;32;34620;-76
2022/10/07 00:23:34;;;;;;;10.32;6.03;;;;;;;13.74;70.96;101138.06;4470868;32;34694;-76
2022/10/07 00:26:04;;;;;;;8.65;5.30;;;;;;;13.91;69.91;101124.56;4484687;32;34450;-75
2022/10/07 00:28:31;;;;;;;8.25;5.62;;;;;;;13.81;70.22;101135.22;4470048;32;33864;-74
2022/10/07 00:31:01;;;;;;;7.70;5.40;;;;;;;13.61;70.93;101138.31;4484111;32;34790;-76
2022/10/07 00:33:33;;;;;;;7.82;5.40;;;;;;;13.60;70.94;101131.16;4470582;32;33995;-76
2022/10/07 00:36:05;;;;;;;7.87;5.12;;;;;;;13.61;70.65;101126.56;4484501;32;33635;-76
2022/10/07 00:38:33;;;;;;;7.53;5.03;;;;;;;13.80;70.07;101130.00;4470323;32;34848;-76
2022/10/07 00:41:00;;;;;;;7.70;4.90;;;;;;;13.93;69.13;101127.03;4483856;32;35104;-75
2022/10/07 00:43:30;;;;;;;7.68;5.30;;;;;;;14.03;68.75;101123.72;4484710;32;34743;-77
2022/10/07 00:46:12;;;;;;;6.97;4.82;;;;;;;13.99;68.75;101120.63;4470629;32;33323;-76
2022/10/07 00:48:41;;;;;;;7.65;5.05;;;;;;;13.93;69.10;101116.13;4469455;32;33676;-76
2022/10/07 00:51:09;;;;;;;7.32;4.95;;;;;;;13.50;70.70;101117.31;4484626;32;35020;-78
2022/10/07 00:53:38;;;;;;;7.20;5.18;;;;;;;13.50;70.92;101111.84;4483717;32;34246;-76
2022/10/07 00:56:06;;;;;;;7.35;5.03;;;;;;;13.33;71.28;101120.69;4484724;32;33681;-78
2022/10/07 00:58:35;;;;;;;6.65;4.90;;;;;;;13.57;70.59;101120.75;4470634;32;33685;-78
2022/10/07 01:01:05;;;;;;;7.68;5.32;;;;;;;13.01;72.19;101124.72;4470795;32;34874;-78
2022/10/07 01:03:34;;;;;;;7.97;5.40;;;;;;;13.36;71.02;101113.12;4470375;32;34733;-77
2022/10/07 01:06:03;;;;;;;8.30;5.45;;;;;;;13.38;70.46;101111.00;4469861;32;33232;-75
2022/10/07 01:08:32;;;;;;;7.40;5.53;;;;;;;12.99;72.00;101119.50;4484332;32;33885;-76
2022/10/07 01:11:12;;;;;;;6.80;5.10;;;;;;;13.26;71.11;101108.19;4484670;32;34447;-76
2022/10/07 01:13:46;;;;;;;7.53;4.85;;;;;;;13.38;70.93;101108.25;4470545;32;33537;-76
2022/10/07 01:16:23;;;;;;;7.75;5.15;;;;;;;13.61;69.57;101107.47;4469928;32;34481;-76
2022/10/07 01:19:06;;;;;;;7.53;5.05;;;;;;;13.49;69.47;101100.09;4484023;32;33412;-76
2022/10/07 01:22:19;;;;;;;7.25;4.95;;;;;;;13.34;70.39;101108.72;4484720;32;35139;-76
2022/10/07 01:25:12;;;;;;;8.15;5.60;;;;;;;13.10;71.45;101107.78;4470191;32;33638;-76
2022/10/07 01:27:47;;;;;;;8.45;5.75;;;;;;;13.09;71.04;101113.50;4469846;32;33454;-75
2022/10/07 01:30:15;;;;;;;6.53;5.17;;;;;;;12.99;71.72;101097.69;4469407;32;33962;-75
2022/10/07 01:32:52;;;;;;;7.00;5.40;;;;;;;12.87;71.85;101107.72;4484396;32;34644;-76
2022/10/07 01:35:24;;;;;;;6.72;5.25;;;;;;;12.95;71.60;101107.38;4483888;32;33653;-75
2022/10/07 01:37:59;;;;;;;7.87;5.30;;;;;;;13.25;70.73;101110.09;4469729;32;33244;-77
2022/10/07 01:40:33;;;;;;;7.70;5.53;;;;;;;13.44;69.17;101113.59;4470063;32;33872;-76
2022/10/07 01:43:01;;;;;;;7.72;5.68;;;;;;;13.07;70.34;101104.72;4469904;32;34303;-75
2022/10/07 01:45:29;;;;;;;9.00;6.25;;;;;;;13.31;69.54;101109.19;4484279;31;33816;-75
2022/10/07 01:47:58;;;;;;;7.00;5.43;;;;;;;12.85;71.28;101104.37;4503795;31;33265;-78
2022/10/07 01:50:27;;;;;;;8.68;5.78;;;;;;;12.86;71.21;101112.34;4515447;31;34964;-75
2022/10/07 01:53:14;;;;;;;7.35;5.60;;;;;;;12.82;71.30;101108.41;4504118;31;34250;-75
2022/10/07 01:56:12;;;;;;;8.18;5.57;;;;;;;12.69;71.88;101100.41;4472097;32;33958;-74
2022/10/07 01:59:12;;;;;;;8.50;5.55;;;;;;;12.54;72.46;101106.25;4483583;32;34119;-75
2022/10/07 02:02:02;;;;;;;8.80;5.90;;;;;;;13.01;70.77;101111.09;4495534;31;33655;-76
2022/10/07 02:04:33;;;;;;;8.82;5.87;;;;;;;12.95;70.67;101099.22;4480552;31;34164;-75
2022/10/07 02:07:23;;;;;;;7.93;5.30;;;;;;;13.03;70.56;101095.34;4501601;31;34603;-76
2022/10/07 02:09:57;;;;;;;9.48;5.97;;;;;;;13.18;69.66;101103.91;4487617;31;33363;-76
2022/10/07 02:12:30;;;;;;;7.95;5.65;;;;;;;12.73;71.08;101102.44;4487218;31;34041;-76
2022/10/07 02:15:06;;;;;;;9.07;5.78;;;;;;;12.56;71.85;101112.31;4496767;31;35084;-76
2022/10/07 02:17:36;;;;;;;8.95;6.07;;;;;;;12.68;71.68;101105.03;4471316;32;33899;-76
2022/10/07 02:20:07;;;;;;;8.68;5.68;;;;;;;12.87;70.68;101107.72;4471440;31;34375;-76
2022/10/07 02:22:35;;;;;;;7.68;5.30;;;;;;;12.99;69.93;101114.03;4471787;32;33983;-76
2022/10/07 02:25:04;;;;;;;8.68;6.10;;;;;;;13.14;68.84;101114.44;4471789;32;34182;-76
2022/10/07 02:27:35;;;;;;;8.05;5.82;;;;;;;13.06;68.94;101103.88;4471344;32;34576;-75
2022/10/07 02:30:09;;;;;;;7.78;5.95;;;;;;;12.98;69.35;101104.22;4458502;31;32893;-74
2022/10/07 02:32:40;;;;;;;8.13;5.80;;;;;;;13.02;69.26;101102.66;4471298;32;34534;-76
2022/10/07 02:35:37;;;;;;;7.37;6.00;;;;;;;12.98;69.37;101106.09;4471304;32;35094;-76
2022/10/07 02:38:09;;;;;;;8.48;6.03;;;;;;;12.83;69.87;101103.78;4485119;32;34266;-76
2022/10/07 02:40:43;;;;;;;8.65;6.28;;;;;;;12.55;70.66;101097.03;4485640;32;34396;-75
2022/10/07 02:43:43;;;;;;;9.10;6.12;;;;;;;12.32;71.75;101092.28;4471677;32;34438;-76
2022/10/07 02:46:16;;;;;;;9.43;6.45;;;;;;;12.75;70.48;101096.78;4483374;31;33695;-76
2022/10/07 02:49:00;;;;;;;9.50;5.90;;;;;;;12.58;71.09;101099.28;4486815;31;34053;-75
2022/10/07 02:51:33;;;;;;;8.25;5.60;;;;;;;12.22;72.24;101094.69;4487397;31;32906;-76
2022/10/07 02:54:03;;;;;;;8.13;6.00;;;;;;;12.52;71.17;101106.47;4500464;31;34952;-76
2022/10/07 02:56:33;;;;;;;8.77;5.85;;;;;;;12.56;71.09;101098.69;4501199;31;34236;-75
2022/10/07 02:59:01;;;;;;;7.07;5.30;;;;;;;12.67;70.13;101095.19;4486803;31;34647;-76
2022/10/07 03:01:31;;;;;;;7.65;5.57;;;;;;;12.66;70.03;101092.72;4486756;31;33375;-76
2022/10/07 03:03:59;;;;;;;7.70;5.47;;;;;;;12.48;70.38;101091.69;4486484;31;34681;-75
2022/10/07 03:06:28;;;;;;;9.07;5.93;;;;;;;12.31;70.96;101086.03;4498403;31;35181;-76
2022/10/07 03:08:56;;;;;;;9.10;6.20;;;;;;;12.27;71.19;101086.72;4485230;32;34444;-75
2022/10/07 03:11:24;;;;;;;8.57;5.87;;;;;;;12.33;70.87;101091.22;4481030;31;33313;-75
2022/10/07 03:13:52;;;;;;;8.93;6.62;;;;;;;12.14;71.08;101086.84;4500946;31;33479;-76
2022/10/07 03:16:20;;;;;;;7.85;5.80;;;;;;;12.46;69.80;101091.09;4501312;31;34186;-75
2022/10/07 03:18:49;;;;;;;10.07;6.50;;;;;;;12.59;69.48;101092.81;4500709;31;34647;-76
2022/10/07 03:21:17;;;;;;;10.52;6.62;;;;;;;12.57;69.02;101088.63;4500934;31;33274;-75
2022/10/07 03:23:49;;;;;;;9.13;6.72;;;;;;;12.42;69.33;101086.28;4501175;31;34725;-75
2022/10/07 03:26:16;;;;;;;9.27;6.37;;;;;;;12.23;70.17;101086.31;4499889;31;33942;-76
2022/10/07 03:28:45;;;;;;;8.85;6.82;;;;;;;12.19;70.49;101087.84;4500741;31;34915;-76
2022/10/07 03:31:14;;;;;;;10.45;6.85;;;;;;;11.78;72.01;101078.41;4500903;31;33701;-75
2022/10/07 03:33:42;;;;;;;8.40;6.35;;;;;;;11.84;72.02;101082.13;4500756;31;34634;-75
2022/10/07 03:36:09;;;;;;;9.70;6.90;;;;;;;11.82;71.96;101087.78;4500946;31;34294;-75
2022/10/07 03:38:37;;;;;;;10.82;7.50;;;;;;;11.70;72.20;101093.12;4500608;31;34327;-75
2022/10/07 03:41:05;;;;;;;10.90;8.07;;;;;;;11.78;72.01;101093.88;4499877;31;33497;-76
2022/10/07 03:43:33;;;;;;;9.82;7.15;;;;;;;11.53;73.13;101088.44;4500936;31;33999;-75
2022/10/07 03:46:01;;;;;;;11.60;8.02;;;;;;;11.77;72.01;101089.47;4486061;31;34187;-75
2022/10/07 03:48:30;;;;;;;9.43;6.90;;;;;;;11.84;72.19;101098.44;4484791;32;34819;-75
2022/10/07 03:50:57;;;;;;;11.38;7.72;;;;;;;11.66;72.32;101082.91;4490763;31;33892;-76
2022/10/07 03:53:28;;;;;;;10.82;7.82;;;;;;;11.35;73.44;101090.06;4500820;31;34583;-76
2022/10/07 03:55:56;;;;;;;12.43;7.65;;;;;;;11.62;72.96;101079.81;4486684;31;34025;-76
2022/10/07 03:58:24;;;;;;;10.43;7.95;;;;;;;11.52;73.14;101082.19;4500554;31;34625;-76
2022/10/07 04:01:05;;;;;;;12.25;9.45;;;;;;;11.00;75.05;101078.84;4485059;31;33618;-76
2022/10/07 04:03:34;;;;;;;11.10;9.07;;;;;;;11.54;73.27;101074.66;4500815;31;33848;-75
2022/10/07 04:06:02;;;;;;;12.18;8.32;;;;;;;11.36;73.88;101078.16;4500905;31;35078;-75
2022/10/07 04:08:31;;;;;;;13.02;8.68;;;;;;;11.63;72.83;101077.91;4500640;31;34457;-75
2022/10/07 04:11:00;;;;;;;11.90;8.52;;;;;;;11.80;72.00;101076.28;4500996;31;33516;-75
2022/10/07 04:13:28;;;;;;;11.20;7.50;;;;;;;11.78;72.22;101078.41;4500602;31;34507;-75
2022/10/07 04:15:56;;;;;;;12.02;9.35;;;;;;;12.02;71.15;101075.88;4500224;31;35079;-75
2022/10/07 04:18:24;;;;;;;12.10;8.02;;;;;;;11.75;71.92;101069.84;4485288;31;36765;-76
2022/10/07 04:20:51;;;;;;;10.10;7.80;;;;;;;11.47;73.06;101079.31;4499990;31;33296;-75
2022/10/07 04:23:20;;;;;;;11.82;8.57;;;;;;;11.75;72.30;101072.56;4498778;31;34102;-75
2022/10/07 04:25:48;;;;;;;11.40;8.60;;;;;;;11.56;72.79;101061.66;4499675;31;34282;-76
2022/10/07 04:28:19;;;;;;;11.02;8.95;;;;;;;11.80;71.72;101068.13;4499664;31;33793;-77
2022/10/07 04:30:52;;;;;;;13.05;9.60;;;;;;;11.26;73.71;101064.22;4498810;31;33517;-76
2022/10/07 04:33:21;;;;;;;15.77;9.80;;;;;;;11.37;73.48;101055.34;4500181;31;34870;-69
2022/10/07 04:35:50;;;;;;;13.13;9.18;;;;;;;11.74;72.47;101062.75;4500654;31;35078;-79
2022/10/07 04:38:17;;;;;;;13.18;9.60;;;;;;;11.84;72.08;101055.75;4499069;31;34888;-74
2022/10/07 04:40:48;;;;;;;15.60;9.88;;;;;;;11.34;73.36;101060.37;4498928;31;33136;-74
2022/10/07 04:43:19;;;;;;;12.37;9.70;;;;;;;10.99;74.82;101058.13;4484335;31;34742;-74
2022/10/07 04:45:50;;;;;;;14.00;10.05;;;;;;;11.03;74.73;101059.38;4485214;31;35036;-75
2022/10/07 04:48:21;;;;;;;16.65;10.50;;;;;;;11.32;73.67;101070.63;4484707;31;34776;-74
2022/10/07 04:50:50;;;;;;;12.07;9.55;;;;;;;11.11;74.38;101064.53;4483503;31;33962;-75
2022/10/07 04:53:19;;;;;;;16.58;8.95;;;;;;;11.25;73.83;101076.97;4486062;31;34818;-75
2022/10/07 04:55:49;;;;;;;13.85;9.13;;;;;;;11.56;72.89;101069.81;4500003;31;33698;-75
2022/10/07 04:58:18;;;;;;;13.60;9.73;;;;;;;11.77;71.36;101076.75;4499560;31;34142;-75
2022/10/07 05:00:48;;;;;;;13.75;9.52;;;;;;;11.80;71.32;101076.28;4499086;31;33612;-75
2022/10/07 05:03:18;;;;;;;17.45;10.80;;;;;;;11.88;71.15;101075.22;4484378;31;34464;-74
2022/10/07 05:05:49;;;;;;;18.58;11.48;;;;;;;11.67;72.00;101085.41;4485568;31;34256;-75
2022/10/07 05:08:18;;;;;;;16.80;12.13;;;;;;;11.88;71.12;101080.66;4499127;31;34149;-75
2022/10/07 05:10:46;;;;;;;15.38;10.88;;;;;;;11.82;71.32;101081.50;4499342;31;33882;-75
2022/10/07 05:13:15;;;;;;;22.60;14.23;;;;;;;11.91;70.83;101077.47;4497718;31;34631;-75
2022/10/07 05:16:00;;;;;;;24.17;15.75;;;;;;;11.94;70.66;101071.56;4498955;31;34064;-73
2022/10/07 05:18:30;;;;;;;23.33;14.82;;;;;;;11.50;72.51;101076.16;4485183;31;34730;-75
2022/10/07 05:20:58;;;;;;;24.25;14.20;;;;;;;11.57;72.25;101090.50;4499234;31;33468;-74
2022/10/07 05:23:27;;;;;;;18.60;13.15;;;;;;;11.34;73.47;101093.00;4499945;31;34857;-75
2022/10/07 05:26:01;;;;;;;19.60;13.70;;;;;;;11.39;73.53;101094.00;4499748;31;34612;-74
2022/10/07 05:28:29;;;;;;;19.75;11.43;;;;;;;11.50;73.33;101103.31;4498591;31;34766;-75
2022/10/07 05:31:05;;;;;;;19.98;12.68;;;;;;;11.84;72.19;101096.53;4499083;31;34220;-74
2022/10/07 05:33:33;;;;;;;35.88;26.05;;;;;;;11.96;71.63;101098.53;4502562;31;34764;-74
2022/10/07 05:36:02;;;;;;;22.20;14.35;;;;;;;11.79;72.63;101090.09;4506259;31;33946;-75
2022/10/07 05:38:29;;;;;;;21.55;13.85;;;;;;;12.04;71.56;101099.09;4491416;31;34464;-73
2022/10/07 05:40:58;;;;;;;18.30;13.20;;;;;;;11.98;71.80;101096.44;4495143;31;32761;-74
2022/10/07 05:43:29;;;;;;;20.60;13.80;;;;;;;12.19;70.83;101096.00;4483647;32;34622;-74
2022/10/07 05:46:02;;;;;;;22.37;13.75;;;;;;;12.09;71.29;101095.69;4470003;32;33204;-75
2022/10/07 05:48:31;;;;;;;24.95;15.98;;;;;;;12.50;70.10;101102.31;4469690;32;34699;-74
2022/10/07 05:51:08;;;;;;;24.67;16.02;;;;;;;12.22;71.12;101100.97;4470316;32;34256;-75
2022/10/07 05:53:39;;;;;;;28.15;16.92;;;;;;;12.27;71.47;101097.59;4483782;32;33584;-74
2022/10/07 05:56:11;;;;;;;25.98;17.83;;;;;;;12.16;72.96;101090.16;4483831;31;34874;-75
2022/10/07 05:58:39;;;;;;;29.70;16.77;;;;;;;12.44;73.20;101101.37;4468862;32;33948;-74
2022/10/07 06:01:13;;;;;;;33.30;19.60;;;;;;;12.71;73.52;101104.56;4483644;32;34530;-75
2022/10/07 06:03:42;;;;;;;38.50;24.27;;;;;;;12.91;72.69;101098.88;4492616;31;34060;-76
2022/10/07 06:06:10;;;;;;;28.70;17.95;;;;;;;13.13;71.13;101103.78;4499083;31;34174;-75
2022/10/07 06:08:38;;;;;;;26.58;17.45;;;;;;;12.56;74.21;101108.75;4494243;31;33543;-75
2022/10/07 06:13:53;;;;;;;21.30;13.77;;;;;;;14.62;68.63;101108.13;4483112;31;34853;-77
2022/10/07 06:16:22;;;;;;;24.85;13.98;;;;;;;14.84;65.85;101115.63;4488139;31;34694;-75
2022/10/07 06:18:52;;;;;;;18.35;12.43;;;;;;;15.62;63.73;101118.66;4490640;31;34545;-73
2022/10/07 06:21:26;;;;;;;19.92;12.85;;;;;;;15.85;62.66;101112.19;4494000;31;33554;-74
2022/10/07 06:23:56;;;;;;;18.65;13.10;;;;;;;16.36;61.73;101111.00;4495775;31;33999;-76
2022/10/07 06:26:24;;;;;;;16.35;11.93;;;;;;;16.68;60.63;101117.72;4485110;31;35052;-74
2022/10/07 06:28:53;;;;;;;15.35;10.90;;;;;;;16.86;60.80;101116.56;4499329;31;33840;-73
2022/10/07 06:31:21;;;;;;;11.27;8.20;;;;;;;16.85;61.62;101112.19;4497586;31;33555;-77
2022/10/07 06:33:49;;;;;;;11.60;9.07;;;;;;;16.58;63.58;101111.00;4486060;31;33841;-73
2022/10/07 06:36:17;;;;;;;11.85;9.25;;;;;;;16.43;64.89;101110.81;4499559;31;33663;-74
2022/10/07 06:38:47;;;;;;;11.88;8.90;;;;;;;16.77;64.87;101111.50;4499778;31;33749;-74
2022/10/07 06:41:14;;;;;;;12.45;9.40;;;;;;;17.70;60.70;101106.91;4476987;31;33413;-74
2022/10/07 06:43:42;;;;;;;13.80;9.60;;;;;;;18.27;59.43;101102.63;4484005;32;34640;-75
2022/10/07 06:46:18;;;;;;;14.20;8.55;;;;;;;18.40;58.04;101100.22;4484033;32;34041;-74
2022/10/07 06:48:46;;;;;;;11.95;9.50;;;;;;;17.55;61.97;101096.66;4471478;32;34002;-74
2022/10/07 06:51:17;;;;;;;12.15;9.43;;;;;;;18.18;60.18;101097.63;4486189;32;34381;-74
2022/10/07 06:53:45;;;;;;;12.27;9.45;;;;;;;18.79;57.96;101090.75;4486972;31;33907;-74
2022/10/07 06:56:13;;;;;;;11.43;8.38;;;;;;;18.44;58.14;101100.50;4502349;31;33739;-74
2022/10/07 06:58:42;;;;;;;11.20;8.32;;;;;;;18.60;58.99;101101.41;4501794;31;33909;-74
2022/10/07 07:01:11;;;;;;;9.23;8.10;;;;;;;18.42;59.93;101098.03;4502446;31;33332;-74
2022/10/07 07:03:39;;;;;;;11.23;8.40;;;;;;;18.39;59.32;101092.25;4478518;32;34008;-74
2022/10/07 07:06:07;;;;;;;10.00;8.07;;;;;;;18.11;61.05;101090.75;4486219;32;33988;-74
2022/10/07 07:08:35;;;;;;;13.00;8.80;;;;;;;18.41;60.53;101098.31;4472026;32;34493;-74
2022/10/07 07:11:34;;;;;;;10.25;7.78;;;;;;;18.67;59.78;101099.22;4486484;32;34295;-74
2022/10/07 07:13:53;;;;;;;13.40;9.88;;;;;;;18.76;60.43;101102.28;4486381;32;33946;-74
2022/10/07 07:16:23;;;;;;;11.88;8.90;;;;;;;18.76;60.17;101105.84;4483823;31;34139;-75
2022/10/07 07:18:52;;;;;;;9.60;7.68;;;;;;;19.20;59.39;101094.44;4487656;31;34717;-73
2022/10/07 07:21:21;;;;;;;11.18;8.90;;;;;;;19.01;60.34;101094.13;4502083;31;33549;-74
2022/10/07 07:23:52;;;;;;;11.45;8.50;;;;;;;19.24;57.55;101098.28;4500441;31;34039;-77
2022/10/07 07:26:20;;;;;;;11.07;8.65;;;;;;;18.83;59.31;101089.97;4487906;31;34054;-77
2022/10/07 07:28:58;;;;;;;9.05;7.90;;;;;;;18.89;57.96;101088.03;4487810;31;34614;-78
2022/10/07 07:31:27;;;;;;;10.75;7.40;;;;;;;18.49;58.22;101096.94;4471823;32;34362;-79
2022/10/07 07:33:58;;;;;;;11.98;7.87;;;;;;;19.04;56.03;101090.81;4484819;32;34901;-74
2022/10/07 07:36:28;;;;;;;10.23;7.55;;;;;;;18.90;57.00;101097.97;4485868;32;33958;-77
2022/10/07 07:39:00;;;;;;;11.10;7.62;;;;;;;18.65;58.32;101096.72;4470685;32;34854;-79
2022/10/07 07:41:31;;;;;;;10.70;8.05;;;;;;;18.82;58.45;101099.28;4485032;32;34616;-78
2022/10/07 07:44:01;;;;;;;10.38;7.93;;;;;;;19.72;54.97;101097.19;4485696;32;34045;-76
2022/10/07 07:46:33;;;;;;;10.15;7.40;;;;;;;19.90;54.36;101095.81;4472101;32;33855;-76
2022/10/07 07:49:01;;;;;;;12.52;8.30;;;;;;;19.33;56.09;101092.22;4471673;32;33810;-71
2022/10/07 07:51:29;;;;;;;13.98;8.40;;;;;;;19.11;56.87;101092.47;4485961;32;34343;-76
2022/10/07 07:53:56;;;;;;;11.90;7.97;;;;;;;19.19;57.43;101095.50;4485946;32;34706;-77
2022/10/07 07:56:24;;;;;;;9.38;7.28;;;;;;;19.37;57.04;101091.41;4486870;31;34235;-73
2022/10/07 07:58:52;;;;;;;9.88;7.75;;;;;;;19.44;55.91;101088.37;4501406;31;34072;-75
2022/10/07 08:01:20;;;;;;;12.70;8.07;;;;;;;19.35;56.35;101087.25;4501616;31;33424;-75
2022/10/07 08:03:48;;;;;;;9.82;7.32;;;;;;;19.61;57.21;101082.56;4501484;31;32183;-77
2022/10/07 08:06:18;;;;;;;10.90;7.80;;;;;;;19.51;55.93;101079.84;4473110;32;35122;-79
2022/10/07 08:08:47;;;;;;;9.52;7.00;;;;;;;19.78;55.84;101082.31;4485707;32;33558;-76
2022/10/07 08:11:16;;;;;;;9.60;6.80;;;;;;;20.16;56.12;101075.34;4492541;31;33074;-77
2022/10/07 08:13:45;;;;;;;9.77;6.72;;;;;;;20.59;54.01;101072.16;4471581;32;33806;-76
2022/10/07 08:16:16;;;;;;;7.75;6.53;;;;;;;20.17;54.29;101071.50;4485733;32;34294;-77
2022/10/07 08:18:46;;;;;;;7.60;6.05;;;;;;;20.21;53.37;101072.56;4485629;32;34091;-80
2022/10/07 08:21:17;;;;;;;10.55;7.03;;;;;;;19.99;54.43;101066.56;4471848;32;33541;-81
2022/10/07 08:23:48;;;;;;;7.25;6.05;;;;;;;20.02;53.92;101061.34;4485711;32;34431;-79
2022/10/07 08:26:15;;;;;;;9.00;6.28;;;;;;;19.48;57.12;101064.69;4485851;32;33802;-78
2022/10/07 08:28:45;;;;;;;8.68;5.93;;;;;;;19.26;57.07;101059.47;4485752;32;34268;-79
2022/10/07 08:31:15;;;;;;;8.07;5.65;;;;;;;19.56;57.46;101066.88;4500210;31;33810;-80
2022/10/07 08:33:44;;;;;;;7.03;4.80;;;;;;;19.87;56.24;101066.91;4501820;31;34753;-81
2022/10/07 08:36:14;;;;;;;8.25;6.05;;;;;;;20.16;53.64;101069.00;4486825;31;34080;-80
2022/10/07 08:38:42;;;;;;;7.57;5.43;;;;;;;20.07;54.18;101068.75;4501233;31;33565;-78
2022/10/07 08:41:37;;;;;;;7.20;4.82;;;;;;;20.19;54.33;101061.00;4501412;31;33463;-76
2022/10/07 08:44:18;;;;;;;7.05;5.25;;;;;;;20.18;53.50;101062.09;4492411;31;34025;-82
2022/10/07 08:46:54;;;;;;;7.03;5.00;;;;;;;19.96;53.91;101047.88;4471597;32;33966;-79
2022/10/07 08:49:30;;;;;;;8.00;5.10;;;;;;;20.12;54.44;101046.69;4485504;32;34111;-80
2022/10/07 08:52:02;;;;;;;8.10;5.95;;;;;;;20.18;54.29;101056.59;4473170;31;33541;-82
2022/10/07 08:54:30;;;;;;;6.93;4.90;;;;;;;19.94;53.17;101058.34;4486756;31;33797;-77
2022/10/07 08:57:06;;;;;;;8.00;5.25;;;;;;;20.28;52.14;101050.22;4501442;31;33780;-77
2022/10/07 08:59:34;;;;;;;7.30;5.18;;;;;;;20.31;52.72;101048.84;4487011;31;33985;-76
2022/10/07 09:02:16;;;;;;;9.05;6.30;;;;;;;20.15;53.67;101053.56;4483005;32;33414;-81
2022/10/07 09:04:57;;;;;;;8.23;6.22;;;;;;;20.52;51.54;101044.88;4471405;32;34730;-77
2022/10/07 09:07:30;;;;;;;7.55;5.30;;;;;;;20.51;51.86;101047.91;4471250;32;35033;-80
2022/10/07 09:10:23;;;;;;;9.05;6.07;;;;;;;20.50;52.85;101044.34;4484635;32;33724;-77
2022/10/07 09:13:04;;;;;;;7.90;5.95;;;;;;;20.74;51.37;101041.75;4471583;32;33475;-77
2022/10/07 09:15:52;;;;;;;9.10;6.20;;;;;;;20.59;52.19;101026.09;4470883;32;34923;-79
2022/10/07 09:18:30;;;;;;;10.15;5.90;;;;;;;20.40;52.99;101033.34;4485165;32;34461;-77
2022/10/07 09:20:58;;;;;;;7.85;5.78;;;;;;;20.31;53.05;101033.13;4471153;32;35007;-82
2022/10/07 09:23:31;;;;;;;9.77;6.62;;;;;;;20.47;52.50;101026.44;4495030;31;34314;-76
2022/10/07 09:25:59;;;;;;;8.15;6.32;;;;;;;20.57;52.69;101038.50;4493170;31;34051;-76
2022/10/07 09:28:28;;;;;;;8.43;5.90;;;;;;;20.29;53.79;101021.56;4470994;32;35116;-82
2022/10/07 09:30:59;;;;;;;11.68;6.68;;;;;;;20.53;52.77;101016.19;4470883;32;34806;-80
2022/10/07 09:33:28;;;;;;;7.93;6.32;;;;;;;20.86;51.03;101022.91;4484776;31;34219;-77
2022/10/07 09:36:04;;;;;;;8.50;5.68;;;;;;;20.21;53.35;101016.63;4470848;32;33754;-77
2022/10/07 09:38:34;;;;;;;9.23;5.82;;;;;;;20.84;52.25;101013.25;4497856;31;34192;-79
2022/10/07 09:41:20;;;;;;;8.27;6.25;;;;;;;21.13;52.84;101015.25;4499705;31;34686;-76
2022/10/07 09:43:58;;;;;;;8.45;5.60;;;;;;;21.21;52.23;101009.09;4486525;31;33513;-81
2022/10/07 09:46:49;;;;;;;8.02;5.62;;;;;;;20.94;51.90;101002.16;4486635;31;33991;-79
2022/10/07 09:49:26;;;;;;;7.72;4.90;;;;;;;21.40;51.61;100998.97;4500490;31;34340;-81
2022/10/07 09:52:01;;;;;;;8.32;5.45;;;;;;;21.86;49.59;100993.00;4498405;31;34660;-75
2022/10/07 09:54:30;;;;;;;8.25;5.45;;;;;;;21.48;51.09;100995.63;4486532;31;33675;-75
2022/10/07 09:57:00;;;;;;;7.07;5.25;;;;;;;21.25;51.20;100986.19;4484673;32;33969;-74
2022/10/07 09:59:35;;;;;;;8.68;5.18;;;;;;;21.59;50.44;100982.53;4484453;32;33844;-74
2022/10/07 10:02:12;;;;;;;5.65;4.35;;;;;;;21.94;49.24;100979.66;4470549;32;33712;-77
2022/10/07 10:04:53;;;;;;;8.52;5.40;;;;;;;21.70;50.56;100981.28;4484699;32;33337;-74
2022/10/07 10:07:34;;;;;;;6.80;4.93;;;;;;;22.10;48.77;100976.41;4475506;31;33921;-78
2022/10/07 10:10:14;;;;;;;6.15;4.65;;;;;;;21.65;49.51;100969.50;4500181;31;35047;-77
2022/10/07 10:12:48;;;;;;;6.75;4.22;;;;;;;22.02;48.11;100966.00;4485572;31;34967;-76
2022/10/07 10:15:23;;;;;;;6.62;4.87;;;;;;;21.95;49.68;100962.78;4486113;31;33380;-78
2022/10/07 10:17:50;;;;;;;6.22;4.53;;;;;;;21.83;50.02;100965.13;4500016;31;33846;-75
2022/10/07 10:20:37;;;;;;;6.95;4.78;;;;;;;22.27;48.25;100962.13;4500003;31;35493;-76
2022/10/07 10:23:28;;;;;;;6.55;4.60;;;;;;;22.37;47.60;100955.59;4488100;31;33573;-76
2022/10/07 10:26:25;;;;;;;6.45;4.37;;;;;;;22.07;48.96;100954.91;4501572;31;33533;-75
2022/10/07 10:29:11;;;;;;;9.57;3.50;;;;;;;21.32;51.59;100947.19;4486456;32;34909;-76
2022/10/07 10:31:52;;;;;;;4.95;3.60;;;;;;;21.46;50.67;100950.09;4486497;32;34326;-76
2022/10/07 10:34:41;;;;;;;5.43;3.25;;;;;;;21.51;49.44;100944.50;4488175;31;33745;-76
2022/10/07 10:37:19;;;;;;;4.43;3.10;;;;;;;21.81;49.32;100945.28;4486251;32;33467;-76
2022/10/07 10:40:06;;;;;;;4.65;3.45;;;;;;;22.32;47.67;100939.91;4489420;31;33878;-78
2022/10/07 10:42:54;;;;;;;4.47;3.42;;;;;;;22.26;48.70;100930.06;4487941;31;33984;-77
2022/10/07 10:45:42;;;;;;;4.35;3.37;;;;;;;22.00;48.60;100935.06;4486980;31;34418;-75
2022/10/07 10:48:20;;;;;;;6.05;3.90;;;;;;;21.81;49.39;100932.28;4487266;31;34336;-76
2022/10/07 10:50:52;;;;;;;5.95;3.90;;;;;;;22.35;47.72;100932.16;4501723;31;34658;-81
2022/10/07 10:53:59;;;;;;;4.87;3.55;;;;;;;22.47;47.84;100921.47;4487374;31;34098;-77
2022/10/07 10:56:48;;;;;;;6.07;4.10;;;;;;;22.73;47.34;100908.03;4487883;31;33977;-81
2022/10/07 10:59:36;;;;;;;5.25;3.87;;;;;;;23.01;45.65;100905.38;4486176;32;34408;-77
2022/10/07 11:02:41;;;;;;;6.03;3.78;;;;;;;23.22;45.31;100903.03;4485931;32;34014;-82
2022/10/07 11:05:24;;;;;;;5.47;3.28;;;;;;;22.78;45.57;100898.84;4470864;32;34215;-83
2022/10/07 11:08:02;;;;;;;4.07;2.72;;;;;;;22.55;46.20;100890.38;4486341;32;34288;-84
2022/10/07 11:10:44;;;;;;;5.37;3.50;;;;;;;22.86;46.41;100881.53;4485822;32;33261;-85
2022/10/07 11:13:11;;;;;;;4.85;3.25;;;;;;;23.12;45.20;100890.22;4485900;31;34437;-83
2022/10/07 11:15:44;;;;;;;4.55;3.12;;;;;;;23.49;45.29;100880.09;4495512;31;34996;-77
2022/10/07 11:18:17;;;;;;;4.32;3.00;;;;;;;23.64;43.56;100876.19;4473962;31;34016;-74
2022/10/07 11:20:47;;;;;;;4.85;3.42;;;;;;;23.57;43.74;100871.06;4500736;31;34202;-79
2022/10/07 11:23:18;;;;;;;5.43;4.18;;;;;;;23.52;44.83;100862.84;4500982;31;34075;-72
2022/10/07 11:25:56;;;;;;;5.07;3.72;;;;;;;23.33;44.79;100860.22;4501353;31;34071;-78
2022/10/07 11:28:26;;;;;;;5.05;3.67;;;;;;;22.53;45.76;100846.41;4487581;31;34541;-77
2022/10/07 11:31:06;;;;;;;5.35;3.55;;;;;;;22.78;46.85;100847.06;4486352;31;34237;-75
2022/10/07 11:33:42;;;;;;;5.00;3.08;;;;;;;23.51;43.59;100850.13;4486077;31;34127;-73
2022/10/07 11:36:31;;;;;;;4.97;2.95;;;;;;;23.73;43.86;100841.88;4486851;31;34249;-73
2022/10/07 11:38:59;;;;;;;4.22;3.10;;;;;;;23.14;44.53;100832.63;4487319;31;34753;-72
2022/10/07 11:41:30;;;;;;;4.80;3.03;;;;;;;23.45;44.28;100832.78;4498139;31;33334;-73
2022/10/07 11:44:02;;;;;;;4.07;2.72;;;;;;;23.50;43.51;100821.62;4469933;31;34880;-71
2022/10/07 11:46:40;;;;;;;5.57;2.78;;;;;;;23.99;40.95;100827.50;4487202;31;35010;-72
2022/10/07 11:49:19;;;;;;;3.80;3.03;;;;;;;23.94;41.50;100825.66;4501062;31;33809;-71
2022/10/07 11:51:50;;;;;;;3.58;2.85;;;;;;;23.94;41.85;100813.75;4471283;32;33552;-71